Time;durP1;ratioP1;P1;durP2;ratioP2;P2;SDS_P1;SDS_P2;PMS_P1;PMS_P2;Temp;Humidity;BMP_temperature;BMP_pressure;BME280_temperature;BME280_humidity;BME280_pressure;Samples;Min_cycle;Max_cycle;Signal;HPM_P1;HPM_P2
2022/09/26 00:01:21;;;;;;;2.70;0.80;;;10.80;99.90;;;;;;5013467;28;20391;-79
2022/09/26 00:03:52;;;;;;;;;;;10.80;99.90;;;;;;5046708;28;20478;-78
2022/09/26 00:06:20;;;;;;;3.25;0.90;;;10.80;99.90;;;;;;5046065;28;19960;-78
2022/09/26 00:08:48;;;;;;;2.58;0.90;;;10.80;99.90;;;;;;5045441;28;20128;-78
2022/09/26 00:11:18;;;;;;;1.90;0.80;;;10.80;99.90;;;;;;5029409;28;20080;-79
2022/09/26 00:13:46;;;;;;;5.13;1.05;;;10.80;99.90;;;;;;5029101;28;20414;-78
2022/09/26 00:16:14;;;;;;;4.40;1.10;;;10.80;99.90;;;;;;5013423;28;20076;-79
2022/09/26 00:18:40;;;;;;;2.72;0.90;;;10.80;99.90;;;;;;5029543;28;20050;-78
2022/09/26 00:21:10;;;;;;;2.80;1.08;;;10.80;99.90;;;;;;5013822;28;20479;-78
2022/09/26 00:23:37;;;;;;;3.28;0.98;;;10.80;99.90;;;;;;5029512;28;20044;-78
2022/09/26 00:26:05;;;;;;;2.20;0.90;;;10.80;99.90;;;;;;5029284;28;20137;-78
2022/09/26 00:28:32;;;;;;;4.63;0.98;;;10.80;99.90;;;;;;5032110;28;20045;-79
2022/09/26 00:31:03;;;;;;;1.63;0.85;;;10.80;99.90;;;;;;5049131;28;20469;-78
2022/09/26 00:33:30;;;;;;;2.22;1.17;;;10.80;99.90;;;;;;5049246;28;20128;-79
2022/09/26 00:35:57;;;;;;;2.85;1.30;;;10.80;99.90;;;;;;5048641;28;20144;-78
2022/09/26 00:38:24;;;;;;;4.72;1.60;;;10.80;99.90;;;;;;5032333;28;20253;-78
2022/09/26 00:40:51;;;;;;;2.58;1.20;;;10.80;99.90;;;;;;5048719;28;20040;-79
2022/09/26 00:43:39;;;;;;;4.63;1.23;;;10.80;99.90;;;;;;5049036;28;20033;-79
2022/09/26 00:46:06;;;;;;;5.43;1.15;;;10.80;99.90;;;;;;5064854;28;20493;-79
2022/09/26 00:48:35;;;;;;;3.25;1.50;;;10.70;99.90;;;;;;5065170;28;20048;-79
2022/09/26 00:51:03;;;;;;;3.95;1.70;;;10.70;99.90;;;;;;5065531;28;20049;-79
2022/09/26 00:53:39;;;;;;;4.05;1.48;;;10.70;99.90;;;;;;5048305;28;20518;-79
2022/09/26 00:56:12;;;;;;;3.83;1.67;;;10.60;99.90;;;;;;5048817;28;20131;-79
2022/09/26 00:58:44;;;;;;;7.72;1.67;;;10.60;99.90;;;;;;5051011;28;20106;-79
2022/09/26 01:01:12;;;;;;;5.50;1.80;;;10.60;99.90;;;;;;5052410;28;20481;-78
2022/09/26 01:03:42;;;;;;;7.30;2.00;;;10.50;99.90;;;;;;5052139;28;20038;-79
2022/09/26 01:06:09;;;;;;;3.53;1.75;;;10.50;99.90;;;;;;5052447;28;20703;-78
2022/09/26 01:08:40;;;;;;;5.07;1.80;;;10.50;99.90;;;;;;5052329;28;20042;-79
2022/09/26 01:11:08;;;;;;;4.35;1.70;;;10.50;99.90;;;;;;5069425;28;20045;-78
2022/09/26 01:13:36;;;;;;;4.13;1.67;;;10.50;99.90;;;;;;5051744;28;20065;-79
2022/09/26 01:16:03;;;;;;;4.95;2.10;;;10.50;99.90;;;;;;5036264;28;20041;-78
2022/09/26 01:18:30;;;;;;;4.03;1.60;;;10.50;99.90;;;;;;5052181;28;20508;-78
2022/09/26 01:21:20;;;;;;;5.00;2.03;;;10.40;99.90;;;;;;5052234;28;20037;-78
2022/09/26 01:24:26;;;;;;;5.90;1.48;;;10.40;99.90;;;;;;5049390;28;20065;-79
2022/09/26 01:27:16;;;;;;;4.57;1.55;;;10.40;99.90;;;;;;5060170;28;20106;-79
2022/09/26 01:30:01;;;;;;;6.00;1.70;;;10.40;99.90;;;;;;5051929;28;20041;-79
2022/09/26 01:32:49;;;;;;;3.65;1.58;;;10.40;99.90;;;;;;5068425;28;20038;-78
2022/09/26 01:35:43;;;;;;;3.63;1.70;;;10.30;99.90;;;;;;5051979;28;20132;-78
2022/09/26 01:38:45;;;;;;;3.00;1.50;;;10.30;99.90;;;;;;5068317;28;20114;-79
2022/09/26 01:41:42;;;;;;;4.50;1.63;;;10.30;99.90;;;;;;5068505;28;20052;-78
2022/09/26 01:44:29;;;;;;;3.58;1.45;;;10.30;99.90;;;;;;5051802;28;20553;-78
2022/09/26 01:47:11;;;;;;;4.70;1.50;;;10.30;99.90;;;;;;5048223;28;20041;-78
2022/09/26 01:50:01;;;;;;;3.53;1.45;;;10.30;99.90;;;;;;5031561;28;20387;-79
2022/09/26 01:52:37;;;;;;;5.38;1.73;;;10.30;99.90;;;;;;5048351;28;20486;-78
2022/09/26 01:55:07;;;;;;;6.10;2.33;;;10.30;99.90;;;;;;5034297;28;20045;-79
2022/09/26 01:57:47;;;;;;;3.65;1.42;;;10.30;99.90;;;;;;5068240;28;20520;-78
2022/09/26 02:00:14;;;;;;;8.15;1.42;;;10.30;99.90;;;;;;5051623;28;20792;-79
2022/09/26 02:02:44;;;;;;;4.47;1.30;;;10.30;99.90;;;;;;5035048;28;20038;-79
2022/09/26 02:05:34;;;;;;;3.65;1.27;;;10.40;99.90;;;;;;5067985;28;20050;-78
2022/09/26 02:08:20;;;;;;;5.85;1.50;;;10.40;99.90;;;;;;5031438;28;20522;-78
2022/09/26 02:10:51;;;;;;;4.13;1.55;;;10.40;99.90;;;;;;5031025;28;20049;-79
2022/09/26 02:13:29;;;;;;;2.22;1.10;;;10.40;99.90;;;;;;5031388;28;20391;-78
2022/09/26 02:16:00;;;;;;;3.17;1.30;;;10.50;99.90;;;;;;5049049;28;20137;-78
2022/09/26 02:18:34;;;;;;;3.45;1.40;;;10.50;99.90;;;;;;5068098;28;20041;-78
2022/09/26 02:21:10;;;;;;;3.72;1.15;;;10.50;99.90;;;;;;5050939;28;20041;-79
2022/09/26 02:23:37;;;;;;;2.75;1.25;;;10.50;99.90;;;;;;5067852;28;20033;-79
2022/09/26 02:26:04;;;;;;;2.33;1.15;;;10.50;99.90;;;;;;5050882;28;20072;-78
2022/09/26 02:28:31;;;;;;;4.68;1.27;;;10.50;99.90;;;;;;5050122;28;20045;-78
2022/09/26 02:31:00;;;;;;;3.20;1.05;;;10.50;99.90;;;;;;5034089;28;20041;-79
2022/09/26 02:33:30;;;;;;;3.60;1.10;;;10.60;99.90;;;;;;5036881;28;20044;-78
2022/09/26 02:35:57;;;;;;;3.50;1.35;;;10.60;99.90;;;;;;5050662;28;20386;-79
2022/09/26 02:38:28;;;;;;;3.75;1.42;;;10.60;99.90;;;;;;5034509;28;20046;-78
2022/09/26 02:41:17;;;;;;;3.13;1.35;;;10.60;99.90;;;;;;5050440;28;20041;-79
2022/09/26 02:44:04;;;;;;;4.32;1.25;;;10.60;99.90;;;;;;5067145;28;20052;-79
2022/09/26 02:46:52;;;;;;;3.22;1.23;;;10.60;99.90;;;;;;5050439;28;20037;-78
2022/09/26 02:49:37;;;;;;;5.97;1.30;;;10.60;99.90;;;;;;5067220;28;20095;-79
2022/09/26 02:52:34;;;;;;;4.30;1.40;;;10.70;99.90;;;;;;5047507;28;20045;-79
2022/09/26 02:55:13;;;;;;;;;;;10.70;99.90;;;;;;5042240;28;20110;-79
2022/09/26 02:58:16;;;;;;;2.88;1.35;;;10.70;99.90;;;;;;5064171;28;20420;-79
2022/09/26 03:01:02;;;;;;;3.10;1.48;;;10.70;99.90;;;;;;5039648;28;20100;-79
2022/09/26 03:03:39;;;;;;;5.07;1.60;;;10.70;99.90;;;;;;5030447;28;20457;-79
2022/09/26 03:06:09;;;;;;;5.45;1.50;;;10.60;99.90;;;;;;5031755;28;20050;-79
2022/09/26 03:08:44;;;;;;;8.02;1.73;;;10.60;99.90;;;;;;5066430;28;20428;-79
2022/09/26 03:11:15;;;;;;;2.92;1.35;;;10.60;99.90;;;;;;5066755;28;20041;-80
2022/09/26 03:13:44;;;;;;;3.13;1.65;;;10.70;99.90;;;;;;5050627;28;20057;-79
2022/09/26 03:16:12;;;;;;;2.92;1.50;;;10.60;99.90;;;;;;5013952;28;20045;-79
2022/09/26 03:18:53;;;;;;;3.53;1.60;;;10.50;99.90;;;;;;5030458;28;20042;-79
2022/09/26 03:21:20;;;;;;;3.28;1.70;;;10.50;99.90;;;;;;5032887;28;20505;-79
2022/09/26 03:23:47;;;;;;;3.67;1.90;;;10.70;99.90;;;;;;5003300;28;20092;-79
2022/09/26 03:26:18;;;;;;;6.70;2.00;;;10.50;99.90;;;;;;5032066;28;20047;-79
2022/09/26 03:28:45;;;;;;;7.40;2.10;;;10.50;99.90;;;;;;5010409;28;20089;-79
2022/09/26 03:31:11;;;;;;;6.00;1.90;;;10.50;99.90;;;;;;5025089;28;20490;-80
2022/09/26 03:33:39;;;;;;;3.85;1.88;;;10.40;99.90;;;;;;5013583;28;20517;-79
2022/09/26 03:36:08;;;;;;;6.13;1.88;;;10.40;99.90;;;;;;4997656;28;20042;-79
2022/09/26 03:38:34;;;;;;;6.13;2.22;;;10.40;99.90;;;;;;5014195;28;20543;-79
2022/09/26 03:41:01;;;;;;;8.07;2.10;;;10.40;99.90;;;;;;4997494;28;20045;-79
2022/09/26 03:43:28;;;;;;;7.18;2.20;;;10.30;99.90;;;;;;5030082;28;20100;-79
2022/09/26 03:45:55;;;;;;;7.47;2.15;;;10.40;99.90;;;;;;5013558;28;20049;-80
2022/09/26 03:48:21;;;;;;;4.68;1.90;;;10.40;99.90;;;;;;5013791;28;20593;-79
2022/09/26 03:50:48;;;;;;;6.05;2.17;;;10.40;99.90;;;;;;4997712;28;20041;-79
2022/09/26 03:53:15;;;;;;;8.25;2.38;;;10.40;99.90;;;;;;5013334;28;20049;-79
2022/09/26 03:55:41;;;;;;;5.78;2.10;;;10.40;99.90;;;;;;5013517;28;20085;-79
2022/09/26 03:58:08;;;;;;;5.30;2.10;;;10.40;99.90;;;;;;5013237;28;20452;-79
2022/09/26 04:00:36;;;;;;;4.63;2.00;;;10.40;99.90;;;;;;4997516;28;20042;-79
2022/09/26 04:03:03;;;;;;;7.38;2.33;;;10.40;99.90;;;;;;5025921;28;20451;-79
2022/09/26 04:05:30;;;;;;;7.25;2.22;;;10.40;99.90;;;;;;5010065;28;20414;-79
2022/09/26 04:07:58;;;;;;;7.53;2.30;;;10.40;99.90;;;;;;4993909;28;20124;-80
2022/09/26 04:10:24;;;;;;;8.32;2.30;;;10.40;99.90;;;;;;5026412;28;20052;-79
2022/09/26 04:12:51;;;;;;;4.38;2.08;;;10.40;99.90;;;;;;5023477;28;20041;-79
2022/09/26 04:15:18;;;;;;;5.90;2.40;;;10.40;99.90;;;;;;5020121;28;20094;-79
2022/09/26 04:17:45;;;;;;;11.32;2.15;;;10.40;99.90;;;;;;5052705;28;20076;-79
2022/09/26 04:20:12;;;;;;;7.22;2.40;;;10.40;99.90;;;;;;5052673;28;20072;-79
2022/09/26 04:22:39;;;;;;;5.50;2.80;;;10.40;99.90;;;;;;5015288;28;20056;-79
2022/09/26 04:25:06;;;;;;;8.07;2.33;;;10.40;99.90;;;;;;5029070;28;20121;-79
2022/09/26 04:27:33;;;;;;;6.03;2.67;;;10.30;99.90;;;;;;5032917;28;20476;-79
2022/09/26 04:29:59;;;;;;;8.57;2.63;;;10.30;99.90;;;;;;5016453;28;20127;-79
2022/09/26 04:32:26;;;;;;;6.20;2.50;;;10.40;99.90;;;;;;5017374;28;20077;-79
2022/09/26 04:34:53;;;;;;;5.00;2.65;;;10.30;99.90;;;;;;5072422;28;20054;-79
2022/09/26 04:37:19;;;;;;;5.90;2.83;;;10.30;99.90;;;;;;5039997;28;20048;-79
2022/09/26 04:39:47;;;;;;;7.18;2.55;;;10.30;99.90;;;;;;5024279;28;20033;-80
2022/09/26 04:42:13;;;;;;;5.63;2.60;;;10.30;99.90;;;;;;5040008;28;20048;-79
2022/09/26 04:44:40;;;;;;;4.63;2.47;;;10.30;99.90;;;;;;5056306;28;20053;-79
2022/09/26 04:47:07;;;;;;;8.25;2.65;;;10.30;99.90;;;;;;5023528;28;20098;-80
2022/09/26 04:49:34;;;;;;;5.07;2.78;;;10.30;99.90;;;;;;5072887;28;20045;-79
2022/09/26 04:52:00;;;;;;;8.10;3.30;;;10.20;99.90;;;;;;5056305;28;20045;-80
2022/09/26 04:54:27;;;;;;;8.75;3.03;;;10.20;99.90;;;;;;5053010;28;20045;-79
2022/09/26 04:56:54;;;;;;;5.07;3.00;;;10.30;99.90;;;;;;5036263;28;20045;-79
2022/09/26 04:59:20;;;;;;;4.80;2.40;;;10.20;99.90;;;;;;5019819;28;20030;-80
2022/09/26 05:01:47;;;;;;;9.18;3.05;;;10.20;99.90;;;;;;5019981;28;20067;-79
2022/09/26 05:04:13;;;;;;;5.57;2.80;;;10.20;99.90;;;;;;5020477;28;20041;-79
2022/09/26 05:06:40;;;;;;;7.97;2.90;;;10.20;99.90;;;;;;5055782;28;20033;-79
2022/09/26 05:09:07;;;;;;;8.18;3.30;;;10.20;99.90;;;;;;5019424;28;20049;-79
2022/09/26 05:11:34;;;;;;;8.82;3.55;;;10.20;99.90;;;;;;5019869;28;20049;-79
2022/09/26 05:14:02;;;;;;;6.70;3.35;;;10.20;99.90;;;;;;5035836;28;20056;-79
2022/09/26 05:16:29;;;;;;;8.80;3.17;;;10.20;99.90;;;;;;5019557;28;20747;-79
2022/09/26 05:18:55;;;;;;;5.28;3.08;;;10.20;99.90;;;;;;5003083;28;20099;-79
2022/09/26 05:21:22;;;;;;;8.40;3.38;;;10.20;99.90;;;;;;5019036;28;20048;-79
2022/09/26 05:26:39;;;;;;;8.68;3.08;;;10.20;99.90;;;;;;5035090;28;20047;-79
2022/09/26 05:29:05;;;;;;;8.07;3.58;;;10.30;99.90;;;;;;5054964;28;20045;-80
2022/09/26 05:31:35;;;;;;;7.72;3.63;;;10.20;99.90;;;;;;5022635;28;20516;-79
2022/09/26 05:34:09;;;;;;;9.70;3.22;;;10.20;99.90;;;;;;5071433;28;20048;-80
2022/09/26 05:36:36;;;;;;;7.05;3.30;;;10.30;99.90;;;;;;5055013;28;20037;-80
2022/09/26 05:40:55;;;;;;;6.60;3.28;;;10.20;99.90;;;;;;5055660;28;20072;-80
2022/09/26 05:41:56;;;;;;;9.23;3.78;;;10.30;99.90;;;;;;5051712;28;20076;-80
2022/09/26 05:44:22;;;;;;;6.60;3.63;;;10.30;99.90;;;;;;5034744;28;20037;-80
2022/09/26 05:46:50;;;;;;;7.88;4.03;;;10.30;99.90;;;;;;5018825;28;20124;-79
2022/09/26 05:49:17;;;;;;;9.35;3.70;;;10.30;99.90;;;;;;5022669;28;20508;-79
2022/09/26 05:51:44;;;;;;;5.78;3.63;;;10.30;99.90;;;;;;5020542;28;20046;-80
2022/09/26 05:54:10;;;;;;;7.53;3.63;;;10.30;99.90;;;;;;5034732;28;20045;-80
2022/09/26 05:56:37;;;;;;;8.27;3.70;;;10.30;99.90;;;;;;5033471;28;20797;-80
2022/09/26 05:59:04;;;;;;;6.50;3.50;;;10.30;99.90;;;;;;5051542;28;20034;-79
2022/09/26 06:01:32;;;;;;;7.22;3.65;;;10.30;99.90;;;;;;5034577;28;20045;-79
2022/09/26 06:03:59;;;;;;;7.78;3.80;;;10.30;99.90;;;;;;5041230;28;20083;-80
2022/09/26 06:06:26;;;;;;;7.93;3.83;;;10.30;99.90;;;;;;5038015;28;20126;-80
2022/09/26 06:08:52;;;;;;;7.07;3.33;;;10.30;99.90;;;;;;5054332;28;20052;-79
2022/09/26 06:11:21;;;;;;;9.32;3.88;;;10.30;99.90;;;;;;5050675;28;20099;-80
2022/09/26 06:13:48;;;;;;;7.85;3.22;;;10.30;99.90;;;;;;5051076;28;20057;-80
2022/09/26 06:16:18;;;;;;;7.30;3.67;;;10.30;99.90;;;;;;5034396;28;20502;-80
2022/09/26 06:18:46;;;;;;;9.43;4.50;;;10.30;99.90;;;;;;5018194;28;20049;-80
2022/09/26 06:21:15;;;;;;;6.93;3.67;;;10.30;99.90;;;;;;5023277;28;20029;-80
2022/09/26 06:23:42;;;;;;;6.93;3.22;;;10.30;99.90;;;;;;5065011;28;20041;-80
2022/09/26 06:26:13;;;;;;;6.85;3.47;;;10.30;99.90;;;;;;5059143;28;20121;-80
2022/09/26 06:28:40;;;;;;;6.93;3.47;;;10.30;99.90;;;;;;5050273;28;20123;-80
2022/09/26 06:31:12;;;;;;;9.77;4.35;;;10.30;99.90;;;;;;5040840;28;20076;-80
2022/09/26 06:33:38;;;;;;;8.75;4.22;;;10.30;99.90;;;;;;5030007;28;20038;-80
2022/09/26 06:36:07;;;;;;;7.28;3.70;;;10.50;99.90;;;;;;5018421;28;20436;-80
2022/09/26 06:38:35;;;;;;;8.43;3.30;;;10.30;99.90;;;;;;5044005;28;20059;-80
2022/09/26 06:41:03;;;;;;;8.38;4.05;;;10.30;99.90;;;;;;5061846;28;20413;-81
2022/09/26 06:43:30;;;;;;;7.03;4.05;;;10.40;99.90;;;;;;5043114;28;20037;-80
2022/09/26 06:45:56;;;;;;;6.97;4.15;;;10.40;99.90;;;;;;5054483;28;20040;-81
2022/09/26 06:48:24;;;;;;;6.88;3.55;;;10.40;99.90;;;;;;5037858;28;20044;-80
2022/09/26 06:50:52;;;;;;;6.75;3.33;;;10.40;99.90;;;;;;5054054;28;20052;-80
2022/09/26 06:53:20;;;;;;;7.50;3.55;;;10.30;99.90;;;;;;5037381;28;20049;-80
2022/09/26 06:55:47;;;;;;;8.70;3.40;;;10.40;99.90;;;;;;5034898;28;20037;-80
2022/09/26 06:58:14;;;;;;;6.68;2.90;;;10.40;99.90;;;;;;5070201;28;20094;-80
2022/09/26 07:00:41;;;;;;;5.15;2.70;;;10.40;99.90;;;;;;5061117;28;20029;-80
2022/09/26 07:03:07;;;;;;;8.07;3.17;;;10.40;99.90;;;;;;5035507;28;20040;-79
2022/09/26 07:05:34;;;;;;;8.30;3.20;;;10.40;99.90;;;;;;5017800;28;20110;-81
2022/09/26 07:08:02;;;;;;;6.80;3.00;;;10.40;99.90;;;;;;5037269;28;20118;-81
2022/09/26 07:10:29;;;;;;;5.85;2.88;;;10.50;99.90;;;;;;5069846;28;20118;-80
2022/09/26 07:13:04;;;;;;;7.05;3.00;;;10.40;99.90;;;;;;5037550;28;20049;-79
2022/09/26 07:15:33;;;;;;;7.68;3.30;;;10.40;99.90;;;;;;5034219;28;20044;-79
2022/09/26 07:18:01;;;;;;;5.30;2.58;;;10.40;99.90;;;;;;5049733;28;20041;-79
2022/09/26 07:20:35;;;;;;;5.93;2.90;;;10.40;99.90;;;;;;5022565;28;20036;-79
2022/09/26 07:23:03;;;;;;;6.32;2.80;;;10.40;99.90;;;;;;5053623;28;20104;-79
2022/09/26 07:25:32;;;;;;;7.55;3.20;;;10.30;99.90;;;;;;5025329;28;20504;-79
2022/09/26 07:27:59;;;;;;;6.20;2.67;;;10.30;99.90;;;;;;5055814;28;20036;-79
2022/09/26 07:30:26;;;;;;;12.32;2.90;;;10.30;99.90;;;;;;5038653;28;20040;-79
2022/09/26 07:33:04;;;;;;;6.80;2.70;;;10.30;99.90;;;;;;5089282;28;20049;-79
2022/09/26 07:35:35;;;;;;;5.32;3.10;;;10.30;99.90;;;;;;5053732;28;20032;-79
2022/09/26 07:38:03;;;;;;;8.57;3.30;;;10.30;99.90;;;;;;5045272;28;20036;-78
2022/09/26 07:40:30;;;;;;;4.53;2.30;;;10.40;99.90;;;;;;5072696;28;20039;-79
2022/09/26 07:43:01;;;;;;;6.10;2.72;;;10.40;99.90;;;;;;5058749;28;20041;-79
2022/09/26 07:50:59;;;;;;;7.13;2.78;;;10.30;99.90;;;;;;5055040;28;20095;-79
2022/09/26 07:53:26;;;;;;;4.65;2.22;;;10.40;99.90;;;;;;5019809;28;20038;-78
2022/09/26 07:56:06;;;;;;;7.47;2.40;;;10.40;99.90;;;;;;5027261;28;20456;-77
2022/09/26 07:58:32;;;;;;;6.13;2.45;;;10.40;99.90;;;;;;5052283;28;20039;-80
2022/09/26 08:00:59;;;;;;;4.22;2.10;;;10.40;99.90;;;;;;5018455;28;20034;-79
2022/09/26 08:03:27;;;;;;;6.45;2.35;;;10.40;99.90;;;;;;5000197;28;20048;-79
2022/09/26 08:05:57;;;;;;;5.78;2.30;;;10.40;99.90;;;;;;5008386;28;20048;-79
2022/09/26 08:08:24;;;;;;;6.22;2.45;;;10.50;99.90;;;;;;5051878;28;20045;-80
2022/09/26 08:10:50;;;;;;;4.43;2.38;;;10.50;99.90;;;;;;5052378;28;20049;-80
2022/09/26 08:13:17;;;;;;;5.38;2.45;;;10.60;99.90;;;;;;5019693;28;20049;-80
2022/09/26 08:15:44;;;;;;;4.32;2.20;;;10.60;99.90;;;;;;5052362;28;20048;-80
2022/09/26 08:18:10;;;;;;;7.78;2.45;;;10.70;99.90;;;;;;5052094;28;20037;-79
2022/09/26 08:20:37;;;;;;;6.53;2.58;;;10.60;99.90;;;;;;5035714;28;20044;-80
2022/09/26 08:23:04;;;;;;;5.85;2.58;;;10.70;99.90;;;;;;5019497;28;20037;-79
2022/09/26 08:25:30;;;;;;;4.13;2.30;;;10.60;99.90;;;;;;5030407;28;20052;-80
2022/09/26 08:27:58;;;;;;;5.93;2.60;;;10.60;99.90;;;;;;5076574;28;20080;-79
2022/09/26 08:30:30;;;;;;;6.57;2.28;;;10.60;99.90;;;;;;5016352;28;20106;-79
2022/09/26 08:33:00;;;;;;;4.70;2.00;;;10.60;99.90;;;;;;5017456;28;20484;-79
2022/09/26 08:35:31;;;;;;;7.38;2.28;;;10.60;99.90;;;;;;5036208;28;20041;-80
2022/09/26 08:38:03;;;;;;;5.45;2.13;;;10.60;99.90;;;;;;5053395;28;20037;-79
2022/09/26 08:40:58;;;;;;;5.10;2.42;;;10.70;99.90;;;;;;5051998;28;20048;-80
2022/09/26 08:43:54;;;;;;;8.18;2.53;;;10.70;99.90;;;;;;5020823;28;20501;-80
2022/09/26 08:46:59;;;;;;;4.68;2.28;;;10.80;99.90;;;;;;5039231;28;20046;-79
2022/09/26 08:49:53;;;;;;;5.93;2.67;;;10.80;99.90;;;;;;5031929;28;20493;-80
2022/09/26 08:52:34;;;;;;;3.58;2.10;;;10.80;99.90;;;;;;5049642;28;20073;-79
2022/09/26 08:55:10;;;;;;;6.07;2.70;;;10.80;99.90;;;;;;5067171;28;20068;-80
2022/09/26 08:57:42;;;;;;;;;;;10.80;99.90;;;;;;5044872;28;20401;-79
2022/09/26 09:00:23;;;;;;;9.43;2.10;;;10.80;99.90;;;;;;5066156;28;20411;-79
2022/09/26 09:03:09;;;;;;;4.32;2.40;;;10.80;99.90;;;;;;5050795;28;20051;-79
2022/09/26 09:05:44;;;;;;;4.53;2.20;;;10.80;99.90;;;;;;5065096;28;20044;-79
2022/09/26 09:08:26;;;;;;;6.22;2.35;;;10.80;99.90;;;;;;5031068;28;20122;-79
2022/09/26 09:11:33;;;;;;;9.02;1.92;;;10.80;99.90;;;;;;5068262;28;20040;-79
2022/09/26 09:14:12;;;;;;;6.13;2.63;;;10.80;99.90;;;;;;5068091;28;20452;-79
2022/09/26 09:16:55;;;;;;;7.60;2.22;;;10.90;99.90;;;;;;5051691;28;20047;-79
2022/09/26 09:19:50;;;;;;;4.15;1.95;;;10.90;99.90;;;;;;5052856;28;20041;-79
2022/09/26 09:22:54;;;;;;;3.67;1.77;;;11.00;99.90;;;;;;5055503;28;20040;-79
2022/09/26 09:25:56;;;;;;;7.40;2.20;;;10.90;99.90;;;;;;5055796;28;20084;-79
2022/09/26 09:28:45;;;;;;;6.00;2.00;;;11.00;99.90;;;;;;5066846;28;20071;-79
2022/09/26 09:31:15;;;;;;;4.57;2.10;;;11.10;99.90;;;;;;5072152;28;20048;-79
2022/09/26 09:33:47;;;;;;;4.68;2.40;;;11.10;99.90;;;;;;5039097;28;20037;-79
2022/09/26 09:36:21;;;;;;;4.75;2.10;;;11.20;99.90;;;;;;5039396;28;20452;-79
2022/09/26 09:38:49;;;;;;;6.65;2.40;;;11.20;99.90;;;;;;5055347;28;20137;-79
2022/09/26 09:41:21;;;;;;;4.80;2.10;;;11.30;99.90;;;;;;5039129;28;20033;-79
2022/09/26 09:43:50;;;;;;;4.38;2.00;;;11.30;99.90;;;;;;5071475;28;20672;-79
2022/09/26 09:46:27;;;;;;;3.60;1.92;;;11.30;99.90;;;;;;5043831;28;20037;-79
2022/09/26 09:49:21;;;;;;;8.05;1.98;;;11.30;99.90;;;;;;5040187;28;20133;-79
2022/09/26 09:52:07;;;;;;;4.65;2.67;;;11.40;99.90;;;;;;5027073;28;20049;-79
2022/09/26 09:54:54;;;;;;;6.18;1.80;;;11.30;99.90;;;;;;5035192;28;20048;-79
2022/09/26 09:57:26;;;;;;;6.18;2.10;;;11.30;99.90;;;;;;5051563;28;20052;-79
2022/09/26 10:00:28;;;;;;;5.55;2.20;;;11.30;99.90;;;;;;5035048;28;20048;-79
2022/09/26 10:03:23;;;;;;;4.20;2.05;;;11.30;99.90;;;;;;5037608;28;20077;-79
2022/09/26 10:05:56;;;;;;;5.35;2.30;;;11.30;99.90;;;;;;5054880;28;20067;-79
2022/09/26 10:08:41;;;;;;;8.40;2.10;;;11.30;99.90;;;;;;5054832;28;20785;-78
2022/09/26 10:11:24;;;;;;;7.80;2.10;;;11.30;99.90;;;;;;5055048;28;20055;-79
2022/09/26 10:13:54;;;;;;;11.63;2.45;;;11.30;99.90;;;;;;5070603;28;20060;-79
2022/09/26 10:16:21;;;;;;;3.22;1.70;;;11.30;99.90;;;;;;5071254;28;20124;-78
2022/09/26 10:19:06;;;;;;;7.72;2.63;;;11.30;99.90;;;;;;5038110;28;20467;-79
2022/09/26 10:21:46;;;;;;;5.32;2.20;;;11.30;99.90;;;;;;5043618;28;20041;-79
2022/09/26 10:24:33;;;;;;;6.65;2.03;;;11.30;99.90;;;;;;5034836;28;20477;-77
2022/09/26 10:27:12;;;;;;;5.95;2.25;;;11.30;99.90;;;;;;5042228;28;20037;-78
2022/09/26 10:29:39;;;;;;;5.45;2.25;;;11.30;99.90;;;;;;5068605;28;20382;-79
2022/09/26 10:32:08;;;;;;;5.43;2.05;;;11.30;99.90;;;;;;5021784;28;20099;-79
2022/09/26 10:34:38;;;;;;;5.63;2.55;;;11.30;99.90;;;;;;5005073;28;20436;-79
2022/09/26 10:37:28;;;;;;;5.20;1.90;;;11.30;99.90;;;;;;5053236;28;20720;-79
2022/09/26 10:42:45;;;;;;;13.25;3.30;;;11.40;99.90;;;;;;5050615;28;20126;-79
2022/09/26 10:45:26;;;;;;;10.27;4.38;;;11.30;99.90;;;;;;5043004;28;20064;-79
2022/09/26 10:47:55;;;;;;;6.30;3.40;;;11.30;99.90;;;;;;5070111;28;20489;-79
2022/09/26 10:50:28;;;;;;;8.07;4.70;;;11.30;99.90;;;;;;5038244;28;20037;-79
2022/09/26 10:53:07;;;;;;;10.63;3.67;;;11.30;99.90;;;;;;5022283;28;20086;-79
2022/09/26 10:55:42;;;;;;;8.70;4.47;;;11.30;99.90;;;;;;5054282;28;20048;-79
2022/09/26 10:58:16;;;;;;;74.30;32.03;;;11.40;99.90;;;;;;5054083;28;20582;-79
2022/09/26 11:00:49;;;;;;;10.60;6.85;;;11.30;99.90;;;;;;5070117;28;20064;-79
2022/09/26 11:03:23;;;;;;;15.35;7.05;;;11.30;99.90;;;;;;5054461;28;20060;-79
2022/09/26 11:05:56;;;;;;;18.67;8.38;;;11.30;99.90;;;;;;5070378;28;20127;-79
2022/09/26 11:08:36;;;;;;;9.13;4.90;;;11.30;99.90;;;;;;5038021;28;20041;-78
2022/09/26 11:11:10;;;;;;;7.05;3.20;;;11.30;99.90;;;;;;5053262;28;20051;-78
2022/09/26 11:14:07;;;;;;;9.05;3.53;;;11.30;99.90;;;;;;5069904;28;20049;-78
2022/09/26 11:16:48;;;;;;;11.13;5.25;;;11.30;99.90;;;;;;5033603;28;20052;-78
2022/09/26 11:19:34;;;;;;;7.97;4.78;;;11.30;99.90;;;;;;5053594;28;20045;-79
2022/09/26 11:22:37;;;;;;;32.15;18.10;;;11.30;99.90;;;;;;5042237;28;20044;-78
2022/09/26 11:25:25;;;;;;;15.93;7.88;;;11.30;99.90;;;;;;5033805;28;20505;-79
2022/09/26 11:28:05;;;;;;;9.27;4.03;;;11.30;99.90;;;;;;5052945;28;20041;-79
2022/09/26 11:30:37;;;;;;;7.00;2.95;;;11.30;99.90;;;;;;5053730;28;20029;-79
2022/09/26 11:33:11;;;;;;;5.55;2.58;;;11.30;99.90;;;;;;5069954;28;20134;-79
2022/09/26 11:36:05;;;;;;;8.07;3.63;;;11.30;99.90;;;;;;5063674;28;20049;-79
2022/09/26 11:38:38;;;;;;;6.95;3.10;;;11.30;99.90;;;;;;5052401;28;20550;-79
2022/09/26 11:41:35;;;;;;;7.05;3.03;;;11.30;99.90;;;;;;5063194;28;20043;-79
2022/09/26 11:44:16;;;;;;;4.90;2.55;;;11.30;99.90;;;;;;5037656;28;20060;-79
2022/09/26 11:46:54;;;;;;;6.18;2.47;;;11.30;99.90;;;;;;5038562;28;20159;-78
2022/09/26 11:49:23;;;;;;;4.20;2.40;;;11.30;99.90;;;;;;5046082;28;20191;-79
2022/09/26 11:52:36;;;;;;;5.18;2.35;;;11.30;99.90;;;;;;5047130;28;20089;-79
2022/09/26 11:55:13;;;;;;;7.63;2.72;;;11.30;99.90;;;;;;5043555;28;20091;-79
2022/09/26 11:58:01;;;;;;;3.88;2.33;;;11.30;99.90;;;;;;5052443;28;20459;-79
2022/09/26 12:00:58;;;;;;;11.63;4.95;;;11.30;99.90;;;;;;5053017;28;20041;-79
2022/09/26 12:03:46;;;;;;;3.88;2.22;;;11.30;99.90;;;;;;5052761;28;20044;-79
2022/09/26 12:06:24;;;;;;;6.18;2.05;;;11.30;99.90;;;;;;5069128;28;20082;-79
2022/09/26 12:09:21;;;;;;;5.70;2.95;;;11.30;99.90;;;;;;5052950;28;20044;-79
2022/09/26 12:12:18;;;;;;;5.95;3.40;;;11.30;99.90;;;;;;5053139;28;20127;-79
2022/09/26 12:14:53;;;;;;;3.90;2.38;;;11.30;99.90;;;;;;5052775;28;20357;-78
2022/09/26 12:17:39;;;;;;;;;;;11.20;99.90;;;;;;5053016;28;20497;-79
2022/09/26 12:20:32;;;;;;;5.03;2.60;;;11.30;99.90;;;;;;5068940;28;19939;-79
2022/09/26 12:23:26;;;;;;;4.57;1.85;;;11.30;99.90;;;;;;5052522;28;20076;-79
2022/09/26 12:26:07;;;;;;;3.75;2.20;;;11.30;99.90;;;;;;5052667;28;20052;-79
2022/09/26 12:28:58;;;;;;;4.22;2.45;;;11.30;99.90;;;;;;5066470;28;20045;-79
2022/09/26 12:31:49;;;;;;;4.03;2.22;;;11.20;99.90;;;;;;5055176;28;20045;-79
2022/09/26 12:34:29;;;;;;;4.78;2.60;;;11.30;99.90;;;;;;5052705;28;20266;-79
2022/09/26 12:37:01;;;;;;;5.65;2.95;;;11.30;99.90;;;;;;5065032;28;20077;-79
2022/09/26 12:39:56;;;;;;;4.65;2.72;;;11.30;99.90;;;;;;5043588;28;20040;-80
2022/09/26 12:42:31;;;;;;;6.22;2.88;;;11.30;99.90;;;;;;5040808;28;20075;-79
2022/09/26 12:45:16;;;;;;;6.97;3.50;;;11.30;99.90;;;;;;5048494;28;20033;-79
2022/09/26 12:47:56;;;;;;;6.85;3.22;;;11.30;99.90;;;;;;5066840;28;20132;-80
2022/09/26 12:50:54;;;;;;;6.28;2.47;;;11.40;99.90;;;;;;5047921;28;20037;-79
2022/09/26 12:53:36;;;;;;;4.65;2.67;;;11.40;99.90;;;;;;5041619;28;20029;-79
2022/09/26 12:56:07;;;;;;;7.03;3.00;;;11.40;99.90;;;;;;5055781;28;20053;-79
2022/09/26 12:59:25;;;;;;;7.05;2.85;;;11.40;99.90;;;;;;5052249;28;20041;-78
2022/09/26 13:02:20;;;;;;;5.32;2.80;;;11.40;99.90;;;;;;4981478;28;20038;-78
2022/09/26 13:05:00;;;;;;;4.82;2.40;;;11.40;99.90;;;;;;5054752;28;20041;-78
2022/09/26 13:07:45;;;;;;;5.38;2.58;;;11.40;99.90;;;;;;5055652;28;20501;-78
2022/09/26 13:10:20;;;;;;;8.35;2.45;;;11.50;99.90;;;;;;5048703;28;20124;-79
2022/09/26 13:13:05;;;;;;;8.25;4.50;;;11.50;99.90;;;;;;5058697;28;20045;-79
2022/09/26 13:15:35;;;;;;;15.77;10.43;;;11.50;99.90;;;;;;5071680;28;20041;-79
2022/09/26 13:18:09;;;;;;;7.53;4.00;;;11.40;99.90;;;;;;5044414;28;20075;-79
2022/09/26 13:20:48;;;;;;;9.65;6.30;;;11.50;99.90;;;;;;5041052;28;20037;-79
2022/09/26 13:23:24;;;;;;;6.20;3.17;;;11.50;99.90;;;;;;5051051;28;20044;-78
2022/09/26 13:26:28;;;;;;;5.60;3.45;;;11.50;99.90;;;;;;5071298;28;20099;-79
2022/09/26 13:29:02;;;;;;;4.18;2.08;;;11.50;99.90;;;;;;5004635;28;20505;-78
2022/09/26 13:31:36;;;;;;;4.25;1.98;;;11.60;99.90;;;;;;5048656;28;20044;-78
2022/09/26 13:34:14;;;;;;;6.30;3.53;;;11.50;99.90;;;;;;5050658;28;20037;-79
2022/09/26 13:36:42;;;;;;;5.65;2.63;;;11.50;99.90;;;;;;5070586;28;20075;-79
2022/09/26 13:39:39;;;;;;;6.90;3.58;;;11.60;99.90;;;;;;5031289;28;20040;-78